createdAt,value
2022-08-25T00:00:37.633Z,27.87
2022-08-25T00:05:47.360Z,27.83
2022-08-25T00:11:03.150Z,27.56
2022-08-25T00:16:05.854Z,27.53
2022-08-25T00:21:08.129Z,27.34
2022-08-25T00:26:10.241Z,27.13
2022-08-25T00:31:15.412Z,26.98
2022-08-25T00:36:18.640Z,26.96
2022-08-25T00:41:22.605Z,26.69
2022-08-25T00:46:28.123Z,26.89
2022-08-25T00:51:39.531Z,26.88
2022-08-25T00:56:42.375Z,26.73
2022-08-25T01:01:44.169Z,26.64
2022-08-25T01:06:46.639Z,26.29
2022-08-25T01:11:48.987Z,26.44
2022-08-25T01:16:53.928Z,26.46
2022-08-25T01:21:56.199Z,26.44
2022-08-25T01:26:58.518Z,26.30
2022-08-25T01:32:04.052Z,26.19
2022-08-25T01:37:05.990Z,26.15
2022-08-25T01:42:09.363Z,25.88
2022-08-25T01:47:12.471Z,26.00
2022-08-25T01:52:34.286Z,25.76
2022-08-25T01:57:36.198Z,25.79
2022-08-25T02:02:42.491Z,25.81
2022-08-25T02:07:44.836Z,25.75
2022-08-25T02:12:46.757Z,25.65
2022-08-25T02:17:48.661Z,25.54
2022-08-25T02:22:56.953Z,25.32
2022-08-25T02:27:59.315Z,25.31
2022-08-25T02:33:01.366Z,25.50
2022-08-25T02:38:04.064Z,25.50
2022-08-25T02:43:06.265Z,25.24
2022-08-25T02:48:08.205Z,25.21
2022-08-25T02:53:10.071Z,24.91
2022-08-25T02:58:12.065Z,24.77
2022-08-25T03:03:17.522Z,24.73
2022-08-25T03:08:19.451Z,24.66
2022-08-25T03:13:21.437Z,24.36
2022-08-25T03:18:23.480Z,24.34
2022-08-25T03:23:26.899Z,24.51
2022-08-25T03:28:31.392Z,24.40
2022-08-25T03:33:33.473Z,24.25
2022-08-25T03:38:38.497Z,24.12
2022-08-25T03:43:40.521Z,24.18
2022-08-25T03:48:42.352Z,24.02
2022-08-25T03:53:44.403Z,24.03
2022-08-25T03:58:46.675Z,24.06
2022-08-25T04:03:48.959Z,24.11
2022-08-25T04:08:52.859Z,23.92
2022-08-25T04:13:57.768Z,24.04
2022-08-25T04:19:01.672Z,23.99
2022-08-25T04:24:05.351Z,23.91
2022-08-25T04:29:10.014Z,23.82
2022-08-25T04:34:14.826Z,23.72
2022-08-25T04:39:32.942Z,23.56
2022-08-25T04:44:34.835Z,23.38
2022-08-25T04:49:37.365Z,23.12
2022-08-25T04:54:39.435Z,23.23
2022-08-25T04:59:41.275Z,23.30
2022-08-25T05:04:43.467Z,23.36
2022-08-25T05:09:45.465Z,23.47
2022-08-25T05:14:47.424Z,23.31
2022-08-25T05:19:49.372Z,23.55
2022-08-25T05:24:51.360Z,23.40
2022-08-25T05:29:53.284Z,23.42
2022-08-25T05:34:55.155Z,23.51
2022-08-25T05:39:57.159Z,23.52
2022-08-25T05:44:59.204Z,23.49
2022-08-25T05:50:01.522Z,23.22
2022-08-25T05:55:04.647Z,23.31
2022-08-25T06:00:07.863Z,23.03
2022-08-25T06:05:23.125Z,23.15
2022-08-25T06:10:28.207Z,23.12
2022-08-25T06:15:30.474Z,23.09
2022-08-25T06:20:32.716Z,23.07
2022-08-25T06:25:35.416Z,23.09
2022-08-25T06:30:39.697Z,23.08
2022-08-25T06:35:43.036Z,23.12
2022-08-25T06:40:47.872Z,23.17
2022-08-25T06:45:50.484Z,23.20
2022-08-25T06:50:52.348Z,23.30
2022-08-25T06:55:58.236Z,23.18
2022-08-25T07:01:13.436Z,23.46
2022-08-25T07:06:18.767Z,23.58
2022-08-25T07:11:21.553Z,23.46
2022-08-25T07:16:25.715Z,23.80
2022-08-25T07:21:35.691Z,23.95
2022-08-25T07:26:39.625Z,24.05
2022-08-25T07:31:41.952Z,24.07
2022-08-25T07:36:44.570Z,24.18
2022-08-25T07:41:46.672Z,24.35
2022-08-25T07:46:54.509Z,24.42
2022-08-25T07:52:04.285Z,24.72
2022-08-25T07:57:08.141Z,24.63
2022-08-25T08:02:18.215Z,25.04
2022-08-25T08:07:23.991Z,24.95
2022-08-25T08:12:44.668Z,25.19
2022-08-25T08:17:46.770Z,25.38
2022-08-25T08:22:50.128Z,25.40
2022-08-25T08:27:55.117Z,25.86
2022-08-25T08:33:09.550Z,26.12
2022-08-25T08:38:17.310Z,26.22
2022-08-25T08:43:21.637Z,26.72
2022-08-25T08:48:40.928Z,27.18
2022-08-25T08:53:57.674Z,27.96
2022-08-25T08:59:19.608Z,29.35
2022-08-25T09:04:41.203Z,29.91
2022-08-25T09:09:43.886Z,30.75
2022-08-25T09:15:00.773Z,31.08
2022-08-25T09:20:06.199Z,31.53
2022-08-25T09:25:54.077Z,32.15
2022-08-25T09:31:05.903Z,32.74
2022-08-25T09:36:08.796Z,32.94
2022-08-25T09:41:11.548Z,33.14
2022-08-25T09:46:28.632Z,33.35
2022-08-25T09:51:42.943Z,33.36
2022-08-25T09:57:05.546Z,33.85
2022-08-25T10:02:29.746Z,34.75
2022-08-25T10:07:37.787Z,34.89
2022-08-25T10:12:43.119Z,35.37
2022-08-25T10:17:45.259Z,35.05
2022-08-25T10:22:50.589Z,35.33
2022-08-25T10:28:12.628Z,35.31
2022-08-25T10:33:33.715Z,35.63
2022-08-25T10:38:39.386Z,35.71
2022-08-25T10:44:34.120Z,35.73
2022-08-25T10:49:51.348Z,36.03
2022-08-25T10:55:05.313Z,36.37
2022-08-25T11:00:14.145Z,36.52
2022-08-25T11:05:37.004Z,36.54
2022-08-25T11:10:44.028Z,36.79
2022-08-25T11:16:15.854Z,36.26
2022-08-25T11:21:36.656Z,36.28
2022-08-25T11:26:42.155Z,36.34
2022-08-25T11:31:52.751Z,36.17
2022-08-25T11:37:01.231Z,36.47
2022-08-25T11:42:18.645Z,36.03
2022-08-25T11:48:11.628Z,35.84
2022-08-25T11:53:18.559Z,36.01
2022-08-25T11:58:51.780Z,35.43
2022-08-25T12:03:54.944Z,34.99
2022-08-25T12:09:10.481Z,34.89
2022-08-25T12:14:38.344Z,34.91
2022-08-25T12:19:40.307Z,34.94
2022-08-25T12:24:47.285Z,34.63
2022-08-25T12:29:56.357Z,34.01
2022-08-25T12:35:11.245Z,34.18
2022-08-25T12:40:49.530Z,34.15
2022-08-25T12:45:53.192Z,33.84
2022-08-25T12:51:02.103Z,33.77
2022-08-25T12:56:17.267Z,33.41
2022-08-25T13:01:32.943Z,33.52
2022-08-25T13:07:13.730Z,33.60
2022-08-25T13:12:22.711Z,33.70
2022-08-25T13:17:33.737Z,33.75
2022-08-25T13:22:36.088Z,33.44
2022-08-25T13:27:39.282Z,33.62
2022-08-25T13:32:41.334Z,33.54
2022-08-25T13:37:43.945Z,33.67
2022-08-25T13:42:55.602Z,33.59
2022-08-25T13:47:58.180Z,33.23
2022-08-25T13:53:05.964Z,33.01
2022-08-25T13:58:15.178Z,32.97
2022-08-25T14:03:35.052Z,33.08
2022-08-25T14:08:39.769Z,33.13
2022-08-25T14:13:44.731Z,33.46
2022-08-25T14:18:55.086Z,33.57
2022-08-25T14:24:00.633Z,33.33
2022-08-25T14:29:02.698Z,33.29
2022-08-25T14:34:14.457Z,33.21
2022-08-25T14:39:17.347Z,33.22
2022-08-25T14:44:19.282Z,33.21
2022-08-25T14:49:29.906Z,33.19
2022-08-25T14:54:33.697Z,32.92
2022-08-25T14:59:43.210Z,32.97
2022-08-25T15:04:59.737Z,33.20
2022-08-25T15:10:02.126Z,33.18
2022-08-25T15:15:06.456Z,33.11
2022-08-25T15:20:09.589Z,33.11
2022-08-25T15:25:13.162Z,33.15
2022-08-25T15:30:15.324Z,33.17
2022-08-25T15:35:17.539Z,33.21
2022-08-25T15:40:20.155Z,33.23
2022-08-25T15:45:22.854Z,33.21
2022-08-25T15:50:27.232Z,33.47
2022-08-25T15:55:29.067Z,33.59
2022-08-25T16:00:31.768Z,33.38
2022-08-25T16:05:36.054Z,33.75
2022-08-25T16:10:42.327Z,33.53
2022-08-25T16:15:52.982Z,33.66
2022-08-25T16:20:56.440Z,33.81
2022-08-25T16:25:58.236Z,34.03
2022-08-25T16:31:00.846Z,33.99
2022-08-25T16:36:15.767Z,33.71
2022-08-25T16:41:21.219Z,33.60
2022-08-25T16:46:23.934Z,33.60
2022-08-25T16:51:29.790Z,33.41
2022-08-25T16:56:35.303Z,33.23
2022-08-25T17:01:40.975Z,33.31
2022-08-25T17:06:51.883Z,32.88
2022-08-25T17:11:56.880Z,33.07
2022-08-25T17:16:58.855Z,33.25
2022-08-25T17:22:00.778Z,33.08
2022-08-25T17:27:02.915Z,32.95
2022-08-25T17:32:05.043Z,32.92
2022-08-25T17:37:07.016Z,32.82
2022-08-25T17:42:09.129Z,32.79
2022-08-25T17:47:11.685Z,32.88
2022-08-25T17:52:13.856Z,32.74
2022-08-25T17:57:16.370Z,32.58
2022-08-25T18:02:18.342Z,32.54
2022-08-25T18:07:20.396Z,32.27
2022-08-25T18:12:27.535Z,31.89
2022-08-25T18:17:29.642Z,31.60
2022-08-25T18:22:32.418Z,31.32
2022-08-25T18:27:35.351Z,30.57
2022-08-25T18:32:37.442Z,30.40
2022-08-25T18:37:58.398Z,30.17
2022-08-25T18:43:06.984Z,29.91
2022-08-25T18:48:09.995Z,29.85
2022-08-25T18:53:12.425Z,29.75
2022-08-25T18:58:14.584Z,29.66
2022-08-25T19:03:17.312Z,29.59
2022-08-25T19:08:21.852Z,29.60
2022-08-25T19:13:23.863Z,29.58
2022-08-25T19:18:26.148Z,29.37
2022-08-25T19:23:32.690Z,29.37
2022-08-25T19:28:35.817Z,29.28
2022-08-25T19:33:44.921Z,29.25
2022-08-25T19:38:47.278Z,29.03
2022-08-25T19:43:56.559Z,28.97
2022-08-25T19:49:01.543Z,28.91
2022-08-25T19:54:09.156Z,28.70
2022-08-25T19:59:12.252Z,28.73
2022-08-25T20:04:14.282Z,28.73
2022-08-25T20:09:36.040Z,28.78
2022-08-25T20:14:40.043Z,28.72
2022-08-25T20:19:43.161Z,28.41
2022-08-25T20:24:51.074Z,28.54
2022-08-25T20:29:59.589Z,28.29
2022-08-25T20:35:06.594Z,28.39
2022-08-25T20:40:15.313Z,28.27
2022-08-25T20:45:18.629Z,28.18
2022-08-25T20:50:20.762Z,27.96
2022-08-25T20:55:23.910Z,28.05
2022-08-25T21:00:28.020Z,27.95
2022-08-25T21:05:30.020Z,27.81
2022-08-25T21:10:33.355Z,27.54
2022-08-25T21:15:37.569Z,27.59
2022-08-25T21:20:39.486Z,27.46
2022-08-25T21:25:42.335Z,27.46
2022-08-25T21:30:44.721Z,27.10
2022-08-25T21:35:49.400Z,27.24
2022-08-25T21:40:51.463Z,27.20
2022-08-25T21:45:53.671Z,27.08
2022-08-25T21:51:10.337Z,26.95
2022-08-25T21:56:18.225Z,26.69
2022-08-25T22:01:21.546Z,26.85
2022-08-25T22:06:25.137Z,26.65
2022-08-25T22:11:28.382Z,26.48
2022-08-25T22:16:36.889Z,26.46
2022-08-25T22:21:39.727Z,26.42
2022-08-25T22:26:42.192Z,26.31
2022-08-25T22:31:49.669Z,26.23
2022-08-25T22:36:54.917Z,26.16
2022-08-25T22:42:03.042Z,26.11
2022-08-25T22:47:05.258Z,26.06
2022-08-25T22:52:09.286Z,25.68
2022-08-25T22:57:13.501Z,25.92
2022-08-25T23:02:16.017Z,25.94
2022-08-25T23:07:18.581Z,25.88
2022-08-25T23:12:21.249Z,25.79
2022-08-25T23:17:24.740Z,25.62
2022-08-25T23:22:27.057Z,25.66
2022-08-25T23:27:28.980Z,25.64
2022-08-25T23:32:30.919Z,25.50
2022-08-25T23:37:33.572Z,25.48
2022-08-25T23:42:35.483Z,25.27
2022-08-25T23:47:39.361Z,25.48
2022-08-25T23:52:41.300Z,25.37
2022-08-25T23:57:43.147Z,25.44
